sensor_id;sensor_type;location;lat;lon;timestamp;P1;durP1;ratioP1;P2;durP2;ratioP2
56824;SDS011;42705;50.326;18.772;2022-10-19T00:04:36;3.77;;;3.17;;
56824;SDS011;42705;50.326;18.772;2022-10-19T00:09:57;5.83;;;3.83;;
56824;SDS011;42705;50.326;18.772;2022-10-19T00:15:18;6.55;;;3.77;;
56824;SDS011;42705;50.326;18.772;2022-10-19T00:20:39;7.10;;;4.00;;
56824;SDS011;42705;50.326;18.772;2022-10-19T00:26:00;7.25;;;4.65;;
56824;SDS011;42705;50.326;18.772;2022-10-19T00:31:22;7.43;;;6.20;;
56824;SDS011;42705;50.326;18.772;2022-10-19T00:42:09;8.75;;;7.55;;
56824;SDS011;42705;50.326;18.772;2022-10-19T00:47:32;8.90;;;7.12;;
56824;SDS011;42705;50.326;18.772;2022-10-19T00:52:53;12.50;;;9.30;;
56824;SDS011;42705;50.326;18.772;2022-10-19T00:58:15;10.60;;;7.95;;
56824;SDS011;42705;50.326;18.772;2022-10-19T01:03:36;13.15;;;9.45;;
56824;SDS011;42705;50.326;18.772;2022-10-19T01:32:02;10.98;;;8.40;;
56824;SDS011;42705;50.326;18.772;2022-10-19T01:37:47;15.40;;;10.70;;
56824;SDS011;42705;50.326;18.772;2022-10-19T01:43:52;14.28;;;9.80;;
56824;SDS011;42705;50.326;18.772;2022-10-19T01:49:41;16.07;;;11.22;;
56824;SDS011;42705;50.326;18.772;2022-10-19T01:55:06;13.50;;;9.70;;
56824;SDS011;42705;50.326;18.772;2022-10-19T02:00:31;14.93;;;10.40;;
56824;SDS011;42705;50.326;18.772;2022-10-19T02:05:57;16.42;;;12.50;;
56824;SDS011;42705;50.326;18.772;2022-10-19T02:11:21;15.40;;;12.18;;
56824;SDS011;42705;50.326;18.772;2022-10-19T02:16:48;16.67;;;12.45;;
56824;SDS011;42705;50.326;18.772;2022-10-19T02:22:20;16.30;;;11.78;;
56824;SDS011;42705;50.326;18.772;2022-10-19T02:27:41;16.60;;;11.60;;
56824;SDS011;42705;50.326;18.772;2022-10-19T02:33:03;17.37;;;13.05;;
56824;SDS011;42705;50.326;18.772;2022-10-19T02:38:24;15.70;;;12.68;;
56824;SDS011;42705;50.326;18.772;2022-10-19T02:43:50;14.58;;;11.33;;
56824;SDS011;42705;50.326;18.772;2022-10-19T02:49:15;16.60;;;11.57;;
56824;SDS011;42705;50.326;18.772;2022-10-19T02:54:38;14.77;;;10.40;;
56824;SDS011;42705;50.326;18.772;2022-10-19T03:00:03;14.30;;;11.12;;
56824;SDS011;42705;50.326;18.772;2022-10-19T03:05:27;13.40;;;10.82;;
56824;SDS011;42705;50.326;18.772;2022-10-19T03:10:48;14.70;;;11.33;;
56824;SDS011;42705;50.326;18.772;2022-10-19T03:16:10;16.07;;;11.03;;
56824;SDS011;42705;50.326;18.772;2022-10-19T03:21:33;15.95;;;11.30;;
56824;SDS011;42705;50.326;18.772;2022-10-19T03:26:55;11.60;;;10.03;;
56824;SDS011;42705;50.326;18.772;2022-10-19T03:32:17;14.70;;;11.18;;
56824;SDS011;42705;50.326;18.772;2022-10-19T03:37:38;15.43;;;11.75;;
56824;SDS011;42705;50.326;18.772;2022-10-19T03:42:59;16.10;;;10.90;;
56824;SDS011;42705;50.326;18.772;2022-10-19T03:48:20;14.45;;;10.48;;
56824;SDS011;42705;50.326;18.772;2022-10-19T03:53:41;15.10;;;11.10;;
56824;SDS011;42705;50.326;18.772;2022-10-19T03:59:03;11.78;;;9.25;;
56824;SDS011;42705;50.326;18.772;2022-10-19T04:04:26;13.30;;;10.58;;
56824;SDS011;42705;50.326;18.772;2022-10-19T04:09:47;15.25;;;10.60;;
56824;SDS011;42705;50.326;18.772;2022-10-19T04:15:08;12.45;;;10.65;;
56824;SDS011;42705;50.326;18.772;2022-10-19T04:20:29;12.97;;;11.27;;
56824;SDS011;42705;50.326;18.772;2022-10-19T04:25:51;12.90;;;9.50;;
56824;SDS011;42705;50.326;18.772;2022-10-19T04:31:12;14.20;;;9.48;;
56824;SDS011;42705;50.326;18.772;2022-10-19T04:36:33;14.30;;;8.80;;
56824;SDS011;42705;50.326;18.772;2022-10-19T04:41:55;15.87;;;9.67;;
56824;SDS011;42705;50.326;18.772;2022-10-19T04:47:16;11.73;;;8.98;;
56824;SDS011;42705;50.326;18.772;2022-10-19T04:52:38;12.33;;;8.77;;
56824;SDS011;42705;50.326;18.772;2022-10-19T04:57:59;12.20;;;8.75;;
56824;SDS011;42705;50.326;18.772;2022-10-19T05:03:20;12.82;;;9.25;;
56824;SDS011;42705;50.326;18.772;2022-10-19T05:08:41;17.87;;;10.15;;
56824;SDS011;42705;50.326;18.772;2022-10-19T05:14:02;15.78;;;11.03;;
56824;SDS011;42705;50.326;18.772;2022-10-19T05:19:23;11.12;;;9.13;;
56824;SDS011;42705;50.326;18.772;2022-10-19T05:24:46;12.07;;;8.85;;
56824;SDS011;42705;50.326;18.772;2022-10-19T05:30:08;14.28;;;9.23;;
56824;SDS011;42705;50.326;18.772;2022-10-19T05:35:30;10.50;;;8.35;;
56824;SDS011;42705;50.326;18.772;2022-10-19T05:40:52;13.18;;;8.93;;
56824;SDS011;42705;50.326;18.772;2022-10-19T05:46:14;14.75;;;10.13;;
56824;SDS011;42705;50.326;18.772;2022-10-19T05:51:38;17.23;;;10.43;;
56824;SDS011;42705;50.326;18.772;2022-10-19T05:56:59;20.75;;;13.03;;
56824;SDS011;42705;50.326;18.772;2022-10-19T06:02:20;25.70;;;14.25;;
56824;SDS011;42705;50.326;18.772;2022-10-19T06:07:41;20.85;;;13.85;;
56824;SDS011;42705;50.326;18.772;2022-10-19T06:13:02;24.40;;;14.73;;
56824;SDS011;42705;50.326;18.772;2022-10-19T06:18:24;22.22;;;15.40;;
56824;SDS011;42705;50.326;18.772;2022-10-19T06:23:49;21.23;;;14.90;;
56824;SDS011;42705;50.326;18.772;2022-10-19T06:29:12;25.25;;;15.15;;
56824;SDS011;42705;50.326;18.772;2022-10-19T06:34:33;25.92;;;15.05;;
56824;SDS011;42705;50.326;18.772;2022-10-19T06:39:54;20.75;;;13.78;;
56824;SDS011;42705;50.326;18.772;2022-10-19T06:45:15;21.30;;;14.25;;
56824;SDS011;42705;50.326;18.772;2022-10-19T06:50:37;24.07;;;14.90;;
56824;SDS011;42705;50.326;18.772;2022-10-19T06:55:58;20.55;;;13.32;;
56824;SDS011;42705;50.326;18.772;2022-10-19T07:01:21;19.27;;;13.38;;
56824;SDS011;42705;50.326;18.772;2022-10-19T07:06:43;22.33;;;13.50;;
56824;SDS011;42705;50.326;18.772;2022-10-19T07:12:05;16.42;;;11.73;;
56824;SDS011;42705;50.326;18.772;2022-10-19T07:17:28;18.02;;;11.73;;
56824;SDS011;42705;50.326;18.772;2022-10-19T07:22:50;19.17;;;12.93;;
56824;SDS011;42705;50.326;18.772;2022-10-19T07:28:10;17.52;;;11.33;;
56824;SDS011;42705;50.326;18.772;2022-10-19T07:33:31;18.37;;;12.00;;
56824;SDS011;42705;50.326;18.772;2022-10-19T07:38:53;15.45;;;11.80;;
56824;SDS011;42705;50.326;18.772;2022-10-19T07:44:14;17.35;;;11.70;;
56824;SDS011;42705;50.326;18.772;2022-10-19T07:49:35;10.93;;;6.17;;
56824;SDS011;42705;50.326;18.772;2022-10-19T07:54:57;8.55;;;7.37;;
56824;SDS011;42705;50.326;18.772;2022-10-19T08:00:18;17.10;;;8.80;;
56824;SDS011;42705;50.326;18.772;2022-10-19T08:05:39;10.95;;;6.95;;
56824;SDS011;42705;50.326;18.772;2022-10-19T08:11:09;10.58;;;6.28;;
56824;SDS011;42705;50.326;18.772;2022-10-19T08:16:35;7.37;;;5.03;;
56824;SDS011;42705;50.326;18.772;2022-10-19T08:22:00;9.68;;;4.10;;
56824;SDS011;42705;50.326;18.772;2022-10-19T08:27:21;9.13;;;4.05;;
56824;SDS011;42705;50.326;18.772;2022-10-19T08:32:42;7.70;;;3.90;;
56824;SDS011;42705;50.326;18.772;2022-10-19T08:38:03;7.42;;;3.22;;
56824;SDS011;42705;50.326;18.772;2022-10-19T08:43:33;6.35;;;3.08;;
56824;SDS011;42705;50.326;18.772;2022-10-19T08:48:59;7.37;;;3.30;;
56824;SDS011;42705;50.326;18.772;2022-10-19T08:54:22;10.03;;;3.33;;
56824;SDS011;42705;50.326;18.772;2022-10-19T09:00:05;7.58;;;4.10;;
56824;SDS011;42705;50.326;18.772;2022-10-19T09:11:48;10.68;;;3.25;;
56824;SDS011;42705;50.326;18.772;2022-10-19T09:17:13;8.48;;;3.30;;
56824;SDS011;42705;50.326;18.772;2022-10-19T09:22:36;7.20;;;3.50;;
56824;SDS011;42705;50.326;18.772;2022-10-19T09:28:13;5.58;;;3.10;;
56824;SDS011;42705;50.326;18.772;2022-10-19T09:33:47;5.50;;;2.92;;
56824;SDS011;42705;50.326;18.772;2022-10-19T09:39:12;8.55;;;3.12;;
56824;SDS011;42705;50.326;18.772;2022-10-19T09:44:34;6.97;;;2.70;;
56824;SDS011;42705;50.326;18.772;2022-10-19T09:50:05;6.10;;;2.67;;
56824;SDS011;42705;50.326;18.772;2022-10-19T09:55:43;6.17;;;2.60;;
56824;SDS011;42705;50.326;18.772;2022-10-19T10:01:08;6.15;;;2.50;;
56824;SDS011;42705;50.326;18.772;2022-10-19T10:06:35;5.53;;;2.33;;
56824;SDS011;42705;50.326;18.772;2022-10-19T10:11:58;5.45;;;2.27;;
56824;SDS011;42705;50.326;18.772;2022-10-19T10:17:20;4.42;;;1.62;;
56824;SDS011;42705;50.326;18.772;2022-10-19T10:22:56;8.20;;;2.05;;
56824;SDS011;42705;50.326;18.772;2022-10-19T10:28:26;9.63;;;2.40;;
56824;SDS011;42705;50.326;18.772;2022-10-19T10:33:51;6.28;;;2.15;;
56824;SDS011;42705;50.326;18.772;2022-10-19T10:39:20;4.10;;;1.45;;
56824;SDS011;42705;50.326;18.772;2022-10-19T10:44:45;5.03;;;1.60;;
56824;SDS011;42705;50.326;18.772;2022-10-19T10:50:19;3.60;;;1.47;;
56824;SDS011;42705;50.326;18.772;2022-10-19T10:55:46;5.20;;;1.77;;
56824;SDS011;42705;50.326;18.772;2022-10-19T11:01:15;4.50;;;1.67;;
56824;SDS011;42705;50.326;18.772;2022-10-19T11:06:42;4.72;;;1.87;;
56824;SDS011;42705;50.326;18.772;2022-10-19T11:12:10;5.62;;;1.65;;
56824;SDS011;42705;50.326;18.772;2022-10-19T11:17:35;2.90;;;1.40;;
56824;SDS011;42705;50.326;18.772;2022-10-19T11:23:11;4.67;;;1.30;;
56824;SDS011;42705;50.326;18.772;2022-10-19T11:28:59;3.42;;;0.80;;
56824;SDS011;42705;50.326;18.772;2022-10-19T11:34:52;0.78;;;0.50;;
56824;SDS011;42705;50.326;18.772;2022-10-19T11:40:23;2.22;;;0.70;;
56824;SDS011;42705;50.326;18.772;2022-10-19T12:08:31;4.00;;;1.40;;
56824;SDS011;42705;50.326;18.772;2022-10-19T12:14:14;3.67;;;1.00;;
56824;SDS011;42705;50.326;18.772;2022-10-19T12:19:43;2.03;;;1.20;;
56824;SDS011;42705;50.326;18.772;2022-10-19T12:25:11;3.05;;;1.65;;
56824;SDS011;42705;50.326;18.772;2022-10-19T12:30:35;2.20;;;0.80;;
56824;SDS011;42705;50.326;18.772;2022-10-19T12:41:58;5.83;;;1.30;;
56824;SDS011;42705;50.326;18.772;2022-10-19T12:47:29;4.45;;;1.20;;
56824;SDS011;42705;50.326;18.772;2022-10-19T12:52:51;3.80;;;0.93;;
56824;SDS011;42705;50.326;18.772;2022-10-19T13:03:41;2.95;;;1.10;;
56824;SDS011;42705;50.326;18.772;2022-10-19T13:09:05;3.75;;;1.15;;
56824;SDS011;42705;50.326;18.772;2022-10-19T13:14:49;5.30;;;1.45;;
56824;SDS011;42705;50.326;18.772;2022-10-19T13:25:39;4.37;;;1.45;;
56824;SDS011;42705;50.326;18.772;2022-10-19T13:31:02;3.37;;;1.17;;
56824;SDS011;42705;50.326;18.772;2022-10-19T13:36:24;5.28;;;1.55;;
56824;SDS011;42705;50.326;18.772;2022-10-19T13:41:46;7.97;;;2.67;;
56824;SDS011;42705;50.326;18.772;2022-10-19T13:47:20;5.37;;;1.30;;
56824;SDS011;42705;50.326;18.772;2022-10-19T13:53:04;3.87;;;1.27;;
56824;SDS011;42705;50.326;18.772;2022-10-19T14:04:56;4.20;;;1.90;;
56824;SDS011;42705;50.326;18.772;2022-10-19T14:10:11;2.15;;;1.10;;
56824;SDS011;42705;50.326;18.772;2022-10-19T14:15:37;5.42;;;1.00;;
56824;SDS011;42705;50.326;18.772;2022-10-19T14:21:02;3.25;;;1.22;;
56824;SDS011;42705;50.326;18.772;2022-10-19T14:26:27;2.80;;;1.02;;
56824;SDS011;42705;50.326;18.772;2022-10-19T14:31:50;4.62;;;1.52;;
56824;SDS011;42705;50.326;18.772;2022-10-19T14:37:18;2.17;;;1.40;;
56824;SDS011;42705;50.326;18.772;2022-10-19T14:42:45;3.13;;;1.27;;
56824;SDS011;42705;50.326;18.772;2022-10-19T14:48:15;3.00;;;1.60;;
56824;SDS011;42705;50.326;18.772;2022-10-19T14:53:45;4.92;;;1.82;;
56824;SDS011;42705;50.326;18.772;2022-10-19T14:59:34;4.62;;;1.62;;
56824;SDS011;42705;50.326;18.772;2022-10-19T15:05:15;3.47;;;1.00;;
56824;SDS011;42705;50.326;18.772;2022-10-19T15:10:43;2.20;;;1.10;;
56824;SDS011;42705;50.326;18.772;2022-10-19T15:16:24;2.25;;;1.20;;
56824;SDS011;42705;50.326;18.772;2022-10-19T15:27:43;2.90;;;1.57;;
56824;SDS011;42705;50.326;18.772;2022-10-19T15:33:08;2.27;;;1.30;;
56824;SDS011;42705;50.326;18.772;2022-10-19T15:38:34;2.47;;;1.37;;
56824;SDS011;42705;50.326;18.772;2022-10-19T15:43:57;3.77;;;1.55;;
56824;SDS011;42705;50.326;18.772;2022-10-19T15:55:02;8.93;;;3.80;;
56824;SDS011;42705;50.326;18.772;2022-10-19T16:00:24;14.58;;;6.95;;
56824;SDS011;42705;50.326;18.772;2022-10-19T16:05:46;6.60;;;3.50;;
56824;SDS011;42705;50.326;18.772;2022-10-19T16:11:09;8.78;;;2.85;;
56824;SDS011;42705;50.326;18.772;2022-10-19T16:16:33;6.97;;;2.58;;
56824;SDS011;42705;50.326;18.772;2022-10-19T16:21:54;6.53;;;2.92;;
56824;SDS011;42705;50.326;18.772;2022-10-19T16:27:15;4.12;;;1.92;;
56824;SDS011;42705;50.326;18.772;2022-10-19T16:32:36;3.60;;;2.00;;
56824;SDS011;42705;50.326;18.772;2022-10-19T16:37:59;4.40;;;1.92;;
56824;SDS011;42705;50.326;18.772;2022-10-19T16:43:20;4.08;;;1.92;;
56824;SDS011;42705;50.326;18.772;2022-10-19T16:48:41;2.75;;;2.17;;
56824;SDS011;42705;50.326;18.772;2022-10-19T16:54:03;3.58;;;1.95;;
56824;SDS011;42705;50.326;18.772;2022-10-19T16:59:26;3.17;;;2.05;;
56824;SDS011;42705;50.326;18.772;2022-10-19T17:04:47;4.95;;;2.10;;
56824;SDS011;42705;50.326;18.772;2022-10-19T17:10:08;5.03;;;1.90;;
56824;SDS011;42705;50.326;18.772;2022-10-19T17:15:30;3.90;;;2.50;;
56824;SDS011;42705;50.326;18.772;2022-10-19T17:20:50;4.25;;;2.25;;
56824;SDS011;42705;50.326;18.772;2022-10-19T17:26:12;5.05;;;2.22;;
56824;SDS011;42705;50.326;18.772;2022-10-19T17:31:33;4.80;;;2.40;;
56824;SDS011;42705;50.326;18.772;2022-10-19T17:42:17;5.12;;;2.52;;
56824;SDS011;42705;50.326;18.772;2022-10-19T17:47:38;15.68;;;7.60;;
56824;SDS011;42705;50.326;18.772;2022-10-19T17:52:59;10.70;;;6.97;;
56824;SDS011;42705;50.326;18.772;2022-10-19T17:58:20;11.93;;;6.20;;
56824;SDS011;42705;50.326;18.772;2022-10-19T18:03:43;11.43;;;5.35;;
56824;SDS011;42705;50.326;18.772;2022-10-19T18:09:06;6.92;;;3.35;;
56824;SDS011;42705;50.326;18.772;2022-10-19T18:14:29;6.92;;;3.35;;
56824;SDS011;42705;50.326;18.772;2022-10-19T18:19:50;6.53;;;2.87;;
56824;SDS011;42705;50.326;18.772;2022-10-19T18:25:11;5.05;;;3.10;;
56824;SDS011;42705;50.326;18.772;2022-10-19T18:30:35;10.13;;;4.85;;
56824;SDS011;42705;50.326;18.772;2022-10-19T18:35:58;9.20;;;4.83;;
56824;SDS011;42705;50.326;18.772;2022-10-19T18:41:20;5.25;;;3.90;;
56824;SDS011;42705;50.326;18.772;2022-10-19T18:46:42;5.93;;;3.20;;
56824;SDS011;42705;50.326;18.772;2022-10-19T18:52:04;5.83;;;2.72;;
56824;SDS011;42705;50.326;18.772;2022-10-19T18:57:27;4.80;;;3.00;;
56824;SDS011;42705;50.326;18.772;2022-10-19T19:02:52;5.28;;;3.08;;
56824;SDS011;42705;50.326;18.772;2022-10-19T19:08:15;4.42;;;3.10;;
56824;SDS011;42705;50.326;18.772;2022-10-19T19:13:36;4.90;;;3.05;;
56824;SDS011;42705;50.326;18.772;2022-10-19T19:18:59;6.70;;;3.83;;
56824;SDS011;42705;50.326;18.772;2022-10-19T19:24:21;5.28;;;3.30;;
56824;SDS011;42705;50.326;18.772;2022-10-19T19:29:42;6.30;;;4.03;;
56824;SDS011;42705;50.326;18.772;2022-10-19T19:35:04;5.85;;;3.60;;
56824;SDS011;42705;50.326;18.772;2022-10-19T19:40:26;5.25;;;3.62;;
56824;SDS011;42705;50.326;18.772;2022-10-19T19:45:54;7.72;;;4.17;;
56824;SDS011;42705;50.326;18.772;2022-10-19T19:51:19;9.23;;;5.80;;
56824;SDS011;42705;50.326;18.772;2022-10-19T19:56:41;8.93;;;5.03;;
56824;SDS011;42705;50.326;18.772;2022-10-19T20:02:02;9.90;;;4.55;;
56824;SDS011;42705;50.326;18.772;2022-10-19T20:07:25;7.67;;;4.58;;
56824;SDS011;42705;50.326;18.772;2022-10-19T20:12:47;11.50;;;5.05;;
56824;SDS011;42705;50.326;18.772;2022-10-19T20:18:08;8.03;;;5.12;;
56824;SDS011;42705;50.326;18.772;2022-10-19T20:23:29;12.33;;;5.95;;
56824;SDS011;42705;50.326;18.772;2022-10-19T20:28:52;9.60;;;5.55;;
56824;SDS011;42705;50.326;18.772;2022-10-19T20:34:14;14.23;;;8.07;;
56824;SDS011;42705;50.326;18.772;2022-10-19T20:39:35;15.23;;;8.08;;
56824;SDS011;42705;50.326;18.772;2022-10-19T20:44:56;16.30;;;9.30;;
56824;SDS011;42705;50.326;18.772;2022-10-19T20:50:17;13.75;;;7.12;;
56824;SDS011;42705;50.326;18.772;2022-10-19T20:55:40;16.70;;;7.92;;
56824;SDS011;42705;50.326;18.772;2022-10-19T21:06:36;13.75;;;8.05;;
56824;SDS011;42705;50.326;18.772;2022-10-19T21:12:00;15.48;;;7.35;;
56824;SDS011;42705;50.326;18.772;2022-10-19T21:17:21;13.45;;;7.28;;
56824;SDS011;42705;50.326;18.772;2022-10-19T21:22:42;12.00;;;5.58;;
56824;SDS011;42705;50.326;18.772;2022-10-19T21:28:03;15.20;;;7.22;;
56824;SDS011;42705;50.326;18.772;2022-10-19T21:33:25;12.23;;;6.40;;
56824;SDS011;42705;50.326;18.772;2022-10-19T21:38:46;16.05;;;7.55;;
56824;SDS011;42705;50.326;18.772;2022-10-19T21:44:09;12.20;;;7.05;;
56824;SDS011;42705;50.326;18.772;2022-10-19T21:49:31;14.97;;;7.50;;
56824;SDS011;42705;50.326;18.772;2022-10-19T21:54:52;15.83;;;7.90;;
56824;SDS011;42705;50.326;18.772;2022-10-19T22:00:13;17.05;;;8.53;;
56824;SDS011;42705;50.326;18.772;2022-10-19T22:05:34;19.98;;;9.48;;
56824;SDS011;42705;50.326;18.772;2022-10-19T22:10:55;17.95;;;9.80;;
56824;SDS011;42705;50.326;18.772;2022-10-19T22:16:17;11.40;;;5.83;;
56824;SDS011;42705;50.326;18.772;2022-10-19T22:21:40;12.25;;;5.58;;
56824;SDS011;42705;50.326;18.772;2022-10-19T22:27:01;14.73;;;6.75;;
56824;SDS011;42705;50.326;18.772;2022-10-19T22:32:22;13.62;;;8.75;;
56824;SDS011;42705;50.326;18.772;2022-10-19T22:37:43;12.80;;;7.45;;
56824;SDS011;42705;50.326;18.772;2022-10-19T22:43:04;11.20;;;6.92;;
56824;SDS011;42705;50.326;18.772;2022-10-19T22:48:25;11.95;;;8.00;;
56824;SDS011;42705;50.326;18.772;2022-10-19T22:53:46;11.43;;;6.80;;
56824;SDS011;42705;50.326;18.772;2022-10-19T22:59:07;12.58;;;7.50;;
56824;SDS011;42705;50.326;18.772;2022-10-19T23:04:29;10.65;;;7.58;;
56824;SDS011;42705;50.326;18.772;2022-10-19T23:09:50;12.78;;;7.53;;
56824;SDS011;42705;50.326;18.772;2022-10-19T23:15:11;12.20;;;7.80;;
56824;SDS011;42705;50.326;18.772;2022-10-19T23:20:32;11.25;;;7.12;;
56824;SDS011;42705;50.326;18.772;2022-10-19T23:31:28;14.98;;;8.95;;
56824;SDS011;42705;50.326;18.772;2022-10-19T23:36:49;14.15;;;8.25;;
56824;SDS011;42705;50.326;18.772;2022-10-19T23:42:10;15.75;;;9.38;;
56824;SDS011;42705;50.326;18.772;2022-10-19T23:47:31;21.17;;;11.73;;
56824;SDS011;42705;50.326;18.772;2022-10-19T23:52:52;21.48;;;11.00;;
56824;SDS011;42705;50.326;18.772;2022-10-19T23:58:13;18.35;;;10.80;;
